createdAt,value
2022-12-03T00:02:15.110Z,1.00
2022-12-03T00:04:41.741Z,1.00
2022-12-03T00:07:08.242Z,1.17
2022-12-03T00:09:34.812Z,1.50
2022-12-03T00:12:01.255Z,1.30
2022-12-03T00:14:27.741Z,1.00
2022-12-03T00:16:54.213Z,1.15
2022-12-03T00:19:20.652Z,1.38
2022-12-03T00:21:47.112Z,1.67
2022-12-03T00:24:13.653Z,1.05
2022-12-03T00:26:40.182Z,1.20
2022-12-03T00:29:06.799Z,0.98
2022-12-03T00:31:33.331Z,1.52
2022-12-03T00:33:59.836Z,1.17
2022-12-03T00:36:26.271Z,0.98
2022-12-03T00:38:52.767Z,1.20
2022-12-03T00:41:19.289Z,1.20
2022-12-03T00:43:45.905Z,1.35
2022-12-03T00:46:15.788Z,1.20
2022-12-03T00:48:46.388Z,1.10
2022-12-03T00:51:12.864Z,1.60
2022-12-03T00:53:39.410Z,1.67
2022-12-03T00:56:06.065Z,1.10
2022-12-03T00:58:32.926Z,1.98
2022-12-03T01:00:59.403Z,2.03
2022-12-03T01:03:25.836Z,1.55
2022-12-03T01:05:52.315Z,1.50
2022-12-03T01:08:18.792Z,1.30
2022-12-03T01:10:45.288Z,1.80
2022-12-03T01:13:11.760Z,1.80
2022-12-03T01:15:38.259Z,1.50
2022-12-03T01:18:04.732Z,1.50
2022-12-03T01:20:31.317Z,1.17
2022-12-03T01:22:57.890Z,1.58
2022-12-03T01:25:24.440Z,1.75
2022-12-03T01:27:51.032Z,1.30
2022-12-03T01:30:17.539Z,1.55
2022-12-03T01:32:43.995Z,1.80
2022-12-03T01:35:10.564Z,2.25
2022-12-03T01:37:37.007Z,1.92
2022-12-03T01:40:04.031Z,1.67
2022-12-03T01:42:33.129Z,2.05
2022-12-03T01:45:00.562Z,2.55
2022-12-03T01:47:44.543Z,1.50
2022-12-03T01:50:11.047Z,2.30
2022-12-03T01:52:38.177Z,1.48
2022-12-03T01:55:07.006Z,1.85
2022-12-03T01:57:39.582Z,2.30
2022-12-03T02:00:07.612Z,2.17
2022-12-03T02:02:34.158Z,2.05
2022-12-03T02:05:01.542Z,2.38
2022-12-03T02:07:33.574Z,2.20
2022-12-03T02:10:01.482Z,2.22
2022-12-03T02:12:40.125Z,2.38
2022-12-03T02:15:07.185Z,2.20
2022-12-03T02:17:33.964Z,1.38
2022-12-03T02:20:01.833Z,2.97
2022-12-03T02:22:31.363Z,2.08
2022-12-03T02:25:10.330Z,2.15
2022-12-03T02:27:36.986Z,2.75
2022-12-03T02:30:04.251Z,2.13
2022-12-03T02:32:30.896Z,1.67
2022-12-03T02:34:57.382Z,3.20
2022-12-03T02:37:26.250Z,2.30
2022-12-03T02:39:54.919Z,2.58
2022-12-03T02:42:36.878Z,2.42
2022-12-03T02:45:12.524Z,1.73
2022-12-03T02:50:15.149Z,2.08
2022-12-03T02:52:43.333Z,2.25
2022-12-03T02:55:10.904Z,2.30
2022-12-03T02:57:38.186Z,2.60
2022-12-03T03:00:06.641Z,1.88
2022-12-03T03:02:33.416Z,2.42
2022-12-03T03:05:00.157Z,1.70
2022-12-03T03:07:26.674Z,2.40
2022-12-03T03:09:53.224Z,1.52
2022-12-03T03:12:19.717Z,1.90
2022-12-03T03:14:46.205Z,2.28
2022-12-03T03:17:12.825Z,2.70
2022-12-03T03:19:39.359Z,1.67
2022-12-03T03:22:05.898Z,2.20
2022-12-03T03:24:32.451Z,1.58
2022-12-03T03:26:58.944Z,1.83
2022-12-03T03:29:25.634Z,2.00
2022-12-03T03:31:52.239Z,2.00
2022-12-03T03:34:18.923Z,1.90
2022-12-03T03:36:45.695Z,2.25
2022-12-03T03:39:12.781Z,2.10
2022-12-03T03:41:39.362Z,1.83
2022-12-03T03:44:07.175Z,2.22
2022-12-03T03:46:34.184Z,1.88
2022-12-03T03:49:01.467Z,1.90
2022-12-03T03:51:28.123Z,2.30
2022-12-03T03:53:54.807Z,1.75
2022-12-03T03:56:21.665Z,2.05
2022-12-03T03:58:48.342Z,1.70
2022-12-03T04:01:15.554Z,1.70
2022-12-03T04:03:42.250Z,1.52
2022-12-03T04:06:09.018Z,2.40
2022-12-03T04:08:35.833Z,2.20
2022-12-03T04:11:20.997Z,1.70
2022-12-03T04:13:47.667Z,1.77
2022-12-03T04:16:14.230Z,2.10
2022-12-03T04:18:43.803Z,1.80
2022-12-03T04:21:29.457Z,1.45
2022-12-03T04:23:55.996Z,2.13
2022-12-03T04:26:41.111Z,1.70
2022-12-03T04:29:07.788Z,1.25
2022-12-03T04:32:06.649Z,1.65
2022-12-03T04:34:52.095Z,1.95
2022-12-03T04:37:19.027Z,1.40
2022-12-03T04:39:45.523Z,1.55
2022-12-03T04:42:12.111Z,2.00
2022-12-03T04:44:38.635Z,1.27
2022-12-03T04:47:11.340Z,1.65
2022-12-03T04:49:39.370Z,1.83
2022-12-03T04:52:05.975Z,1.80
2022-12-03T04:54:32.476Z,1.40
2022-12-03T04:56:59.039Z,1.75
2022-12-03T04:59:25.648Z,1.90
2022-12-03T05:01:52.266Z,1.98
2022-12-03T05:04:18.840Z,2.08
2022-12-03T05:06:45.671Z,1.60
2022-12-03T05:09:12.379Z,2.30
2022-12-03T05:11:39.084Z,2.17
2022-12-03T05:14:05.687Z,1.70
2022-12-03T05:16:32.325Z,1.70
2022-12-03T05:18:58.904Z,2.30
2022-12-03T05:21:25.446Z,2.00
2022-12-03T05:23:51.959Z,1.80
2022-12-03T05:26:18.537Z,1.90
2022-12-03T05:28:45.108Z,1.45
2022-12-03T05:31:11.691Z,1.95
2022-12-03T05:33:43.796Z,1.98
2022-12-03T05:36:11.000Z,2.08
2022-12-03T05:38:37.568Z,2.58
2022-12-03T05:41:24.193Z,2.05
2022-12-03T05:43:50.689Z,1.85
2022-12-03T05:46:17.263Z,2.53
2022-12-03T05:48:44.107Z,1.83
2022-12-03T05:51:10.581Z,2.35
2022-12-03T05:53:37.034Z,2.15
2022-12-03T05:56:03.580Z,2.70
2022-12-03T05:58:30.084Z,1.90
2022-12-03T06:00:56.616Z,2.17
2022-12-03T06:03:23.237Z,2.10
2022-12-03T06:05:50.119Z,2.10
2022-12-03T06:08:16.739Z,1.75
2022-12-03T06:10:43.344Z,2.45
2022-12-03T06:13:09.860Z,1.73
2022-12-03T06:15:40.397Z,1.52
2022-12-03T06:18:09.972Z,2.10
2022-12-03T06:20:36.483Z,2.15
2022-12-03T06:23:03.007Z,2.15
2022-12-03T06:25:29.517Z,1.73
2022-12-03T06:27:55.973Z,1.50
2022-12-03T06:30:22.431Z,1.80
2022-12-03T06:32:48.988Z,1.88
2022-12-03T06:35:15.548Z,1.55
2022-12-03T06:37:41.997Z,1.67
2022-12-03T06:40:08.880Z,1.60
2022-12-03T06:42:35.360Z,1.27
2022-12-03T06:45:01.936Z,1.42
2022-12-03T06:47:28.470Z,1.77
2022-12-03T06:49:54.970Z,1.75
2022-12-03T06:52:21.602Z,1.77
2022-12-03T06:54:48.111Z,1.60
2022-12-03T06:57:14.628Z,1.58
2022-12-03T06:59:41.138Z,1.50
2022-12-03T07:02:07.767Z,1.30
2022-12-03T07:04:34.291Z,1.85
2022-12-03T07:07:00.831Z,1.50
2022-12-03T07:09:27.460Z,1.05
2022-12-03T07:11:53.985Z,1.08
2022-12-03T07:14:20.547Z,2.05
2022-12-03T07:16:47.663Z,1.45
2022-12-03T07:19:14.758Z,1.40
2022-12-03T07:21:41.344Z,1.60
2022-12-03T07:24:08.015Z,1.65
2022-12-03T07:26:34.542Z,1.45
2022-12-03T07:29:01.030Z,1.90
2022-12-03T07:31:27.701Z,1.40
2022-12-03T07:33:54.244Z,1.30
2022-12-03T07:36:20.775Z,1.90
2022-12-03T07:38:51.141Z,1.70
2022-12-03T07:41:17.724Z,1.25
2022-12-03T07:43:45.331Z,1.67
2022-12-03T07:46:12.127Z,1.95
2022-12-03T07:48:38.746Z,1.05
2022-12-03T07:51:05.331Z,1.65
2022-12-03T07:53:31.903Z,1.50
2022-12-03T07:55:58.639Z,2.20
2022-12-03T07:58:25.291Z,1.85
2022-12-03T08:00:51.942Z,1.35
2022-12-03T08:03:18.561Z,1.20
2022-12-03T08:05:45.077Z,1.30
2022-12-03T08:08:11.736Z,1.67
2022-12-03T08:10:38.679Z,1.40
2022-12-03T08:13:14.970Z,1.50
2022-12-03T08:15:41.704Z,1.05
2022-12-03T08:18:13.106Z,1.38
2022-12-03T08:20:40.870Z,1.08
2022-12-03T08:23:11.879Z,1.00
2022-12-03T08:25:38.567Z,1.73
2022-12-03T08:28:09.088Z,1.67
2022-12-03T08:30:35.574Z,1.70
2022-12-03T08:33:02.088Z,2.47
2022-12-03T08:35:30.640Z,1.85
2022-12-03T08:38:09.804Z,1.52
2022-12-03T08:40:37.455Z,1.45
2022-12-03T08:43:13.624Z,3.65
2022-12-03T08:45:49.306Z,1.67
2022-12-03T08:48:19.128Z,2.33
2022-12-03T08:50:50.393Z,2.35
2022-12-03T08:53:24.930Z,2.35
2022-12-03T08:55:56.065Z,2.08
2022-12-03T08:58:25.603Z,2.13
2022-12-03T09:00:53.809Z,2.55
2022-12-03T09:03:20.419Z,2.22
2022-12-03T09:05:46.918Z,2.40
2022-12-03T09:08:13.793Z,2.20
2022-12-03T09:10:40.386Z,1.98
2022-12-03T09:13:06.920Z,1.88
2022-12-03T09:15:33.446Z,1.92
2022-12-03T09:17:59.927Z,2.60
2022-12-03T09:20:26.446Z,1.92
2022-12-03T09:22:53.009Z,1.88
2022-12-03T09:25:19.581Z,2.40
2022-12-03T09:27:46.113Z,2.13
2022-12-03T09:32:47.737Z,2.58
2022-12-03T09:35:14.263Z,3.30
2022-12-03T09:37:40.734Z,2.03
2022-12-03T09:40:07.663Z,2.40
2022-12-03T09:42:34.195Z,2.33
2022-12-03T09:45:01.852Z,2.83
2022-12-03T09:47:29.416Z,2.80
2022-12-03T09:49:56.649Z,2.10
2022-12-03T09:52:27.490Z,2.85
2022-12-03T09:54:54.770Z,2.35
2022-12-03T09:57:21.645Z,2.47
2022-12-03T09:59:48.105Z,1.75
2022-12-03T10:02:21.284Z,2.58
2022-12-03T10:04:48.495Z,2.25
2022-12-03T10:07:15.168Z,2.28
2022-12-03T10:09:41.898Z,2.55
2022-12-03T10:12:11.569Z,2.15
2022-12-03T10:14:38.079Z,2.20
2022-12-03T10:17:05.056Z,2.50
2022-12-03T10:19:32.793Z,2.10
2022-12-03T10:21:59.651Z,2.45
2022-12-03T10:24:30.993Z,2.38
2022-12-03T10:26:58.616Z,2.95
2022-12-03T10:29:32.946Z,2.75
2022-12-03T10:32:02.484Z,2.80
2022-12-03T10:34:32.344Z,2.67
2022-12-03T10:37:12.752Z,2.88
2022-12-03T10:39:56.732Z,2.60
2022-12-03T10:44:53.838Z,2.38
2022-12-03T10:47:22.643Z,3.03
2022-12-03T10:50:00.926Z,2.58
2022-12-03T10:52:27.458Z,2.63
2022-12-03T10:54:54.267Z,2.47
2022-12-03T10:57:20.885Z,2.85
2022-12-03T10:59:47.382Z,3.88
2022-12-03T11:02:23.744Z,2.35
2022-12-03T11:04:54.356Z,2.30
2022-12-03T11:07:22.163Z,1.63
2022-12-03T11:09:50.160Z,1.92
2022-12-03T11:12:27.556Z,2.03
2022-12-03T11:14:54.565Z,1.80
2022-12-03T11:17:36.479Z,2.22
2022-12-03T11:20:03.385Z,3.05
2022-12-03T11:22:49.496Z,2.38
2022-12-03T11:25:27.064Z,2.35
2022-12-03T11:28:12.458Z,2.60
2022-12-03T11:30:51.648Z,2.70
2022-12-03T11:33:21.999Z,2.40
2022-12-03T11:36:03.938Z,2.38
2022-12-03T11:38:46.184Z,2.08
2022-12-03T11:41:25.131Z,2.42
2022-12-03T11:43:57.506Z,2.05
2022-12-03T11:46:25.343Z,2.17
2022-12-03T11:48:53.356Z,2.67
2022-12-03T11:51:21.253Z,2.15
2022-12-03T11:53:48.794Z,2.33
2022-12-03T11:56:28.904Z,1.92
2022-12-03T11:58:59.849Z,2.17
2022-12-03T12:01:38.765Z,1.70
2022-12-03T12:04:06.010Z,1.83
2022-12-03T12:06:43.032Z,2.17
2022-12-03T12:09:09.608Z,1.80
2022-12-03T12:11:37.358Z,2.22
2022-12-03T12:14:04.847Z,2.28
2022-12-03T12:16:50.916Z,2.95
2022-12-03T12:19:29.769Z,2.45
2022-12-03T12:21:56.513Z,2.03
2022-12-03T12:24:43.217Z,2.00
2022-12-03T12:27:10.775Z,2.40
2022-12-03T12:29:38.293Z,2.17
2022-12-03T12:32:11.144Z,2.53
2022-12-03T12:34:41.574Z,2.10
2022-12-03T12:37:14.141Z,2.03
2022-12-03T12:39:40.797Z,1.60
2022-12-03T12:42:20.976Z,2.60
2022-12-03T12:44:49.659Z,3.95
2022-12-03T12:47:16.172Z,4.90
2022-12-03T12:49:46.159Z,7.38
2022-12-03T12:52:15.166Z,3.88
2022-12-03T12:54:41.863Z,7.72
2022-12-03T12:57:16.723Z,11.05
2022-12-03T12:59:43.305Z,6.78
2022-12-03T13:02:28.559Z,5.32
2022-12-03T13:04:55.174Z,5.03
2022-12-03T13:07:22.409Z,5.43
2022-12-03T13:09:54.796Z,4.78
2022-12-03T13:12:22.838Z,4.03
2022-12-03T13:14:50.849Z,3.42
2022-12-03T13:17:24.670Z,2.50
2022-12-03T13:22:27.915Z,2.78
2022-12-03T13:24:56.149Z,2.40
2022-12-03T13:27:29.668Z,2.28
2022-12-03T13:29:59.237Z,2.38
2022-12-03T13:32:31.173Z,3.97
2022-12-03T13:35:05.326Z,5.68
2022-12-03T13:37:32.019Z,6.05
2022-12-03T13:40:03.643Z,3.38
2022-12-03T13:42:38.742Z,5.10
2022-12-03T13:45:24.723Z,2.63
2022-12-03T13:47:56.348Z,3.60
2022-12-03T13:50:25.807Z,3.08
2022-12-03T13:52:53.129Z,2.53
2022-12-03T13:55:26.582Z,3.75
2022-12-03T13:57:54.418Z,2.15
2022-12-03T14:00:21.022Z,2.35
2022-12-03T14:02:47.639Z,2.20
2022-12-03T14:05:14.301Z,1.80
2022-12-03T14:07:40.883Z,1.95
2022-12-03T14:10:08.336Z,2.58
2022-12-03T14:12:35.060Z,2.20
2022-12-03T14:15:01.985Z,2.55
2022-12-03T14:17:28.646Z,1.85
2022-12-03T14:19:55.506Z,1.60
2022-12-03T14:22:25.676Z,1.65
2022-12-03T14:24:55.414Z,1.55
2022-12-03T14:27:22.102Z,1.70
2022-12-03T14:29:48.651Z,1.63
2022-12-03T14:32:15.152Z,2.33
2022-12-03T14:34:41.661Z,2.33
2022-12-03T14:37:08.154Z,1.73
2022-12-03T14:39:34.614Z,1.40
2022-12-03T14:42:13.309Z,1.90
2022-12-03T14:44:40.450Z,1.63
2022-12-03T14:47:07.033Z,1.67
2022-12-03T14:49:33.510Z,2.10
2022-12-03T14:51:59.951Z,2.15
2022-12-03T14:54:26.438Z,2.40
2022-12-03T14:56:52.954Z,3.03
2022-12-03T14:59:24.403Z,2.47
2022-12-03T15:01:53.989Z,2.58
2022-12-03T15:04:20.641Z,3.22
2022-12-03T15:06:47.089Z,2.97
2022-12-03T15:09:13.899Z,2.58
2022-12-03T15:11:45.891Z,1.95
2022-12-03T15:14:12.722Z,5.45
2022-12-03T15:16:39.270Z,3.45
2022-12-03T15:19:05.764Z,10.60
2022-12-03T15:21:35.390Z,5.22
2022-12-03T15:24:02.421Z,7.85
2022-12-03T15:26:29.371Z,4.45
2022-12-03T15:28:55.866Z,12.43
2022-12-03T15:31:22.423Z,7.63
2022-12-03T15:33:49.028Z,3.45
2022-12-03T15:36:15.738Z,3.92
2022-12-03T15:38:42.241Z,3.47
2022-12-03T15:41:27.433Z,4.30
2022-12-03T15:43:53.865Z,3.05
2022-12-03T15:46:20.592Z,2.58
2022-12-03T15:48:47.366Z,2.20
2022-12-03T15:51:14.001Z,3.17
2022-12-03T15:53:40.709Z,2.78
2022-12-03T15:56:07.258Z,3.05
2022-12-03T15:58:33.741Z,2.03
2022-12-03T16:01:00.305Z,3.03
2022-12-03T16:03:26.840Z,3.28
2022-12-03T16:05:53.634Z,4.25
2022-12-03T16:08:20.194Z,3.00
2022-12-03T16:10:46.770Z,2.40
2022-12-03T16:13:13.363Z,2.75
2022-12-03T16:15:39.993Z,2.53
2022-12-03T16:18:06.592Z,3.30
2022-12-03T16:20:33.113Z,3.92
2022-12-03T16:22:59.604Z,4.38
2022-12-03T16:25:26.330Z,4.00
2022-12-03T16:27:52.857Z,4.80
2022-12-03T16:30:19.735Z,4.00
2022-12-03T16:32:46.217Z,3.95
2022-12-03T16:35:12.661Z,3.13
2022-12-03T16:37:39.292Z,2.95
2022-12-03T16:40:06.250Z,3.97
2022-12-03T16:42:32.842Z,3.53
2022-12-03T16:45:08.261Z,3.38
2022-12-03T16:47:35.104Z,4.15
2022-12-03T16:50:05.837Z,3.88
2022-12-03T16:52:32.348Z,4.28
2022-12-03T16:54:58.777Z,4.32
2022-12-03T16:57:30.248Z,5.30
2022-12-03T16:59:59.789Z,4.90
2022-12-03T17:02:27.698Z,5.00
2022-12-03T17:04:54.270Z,4.97
2022-12-03T17:07:20.730Z,4.75
2022-12-03T17:09:47.320Z,4.68
2022-12-03T17:12:13.957Z,3.88
2022-12-03T17:14:40.565Z,3.67
2022-12-03T17:17:07.035Z,4.57
2022-12-03T17:19:33.499Z,4.63
2022-12-03T17:21:59.925Z,5.07
2022-12-03T17:24:26.486Z,6.82
2022-12-03T17:26:53.158Z,5.72
2022-12-03T17:29:19.583Z,6.95
2022-12-03T17:31:46.356Z,8.30
2022-12-03T17:34:12.909Z,6.78
2022-12-03T17:36:39.350Z,5.90
2022-12-03T17:39:05.810Z,4.40
2022-12-03T17:41:32.238Z,3.95
2022-12-03T17:43:58.675Z,3.40
2022-12-03T17:46:25.199Z,3.08
2022-12-03T17:48:51.741Z,2.55
2022-12-03T17:51:20.857Z,2.65
2022-12-03T17:53:47.547Z,2.47
2022-12-03T17:56:14.501Z,2.90
2022-12-03T17:58:40.938Z,3.35
2022-12-03T18:01:10.393Z,3.10
2022-12-03T18:03:37.070Z,3.83
2022-12-03T18:06:04.199Z,3.80
2022-12-03T18:08:30.866Z,6.22
2022-12-03T18:10:57.328Z,13.45
2022-12-03T18:13:23.771Z,13.90
2022-12-03T18:15:50.294Z,10.88
2022-12-03T18:18:16.793Z,9.93
2022-12-03T18:20:43.330Z,7.95
2022-12-03T18:23:09.799Z,7.82
2022-12-03T18:25:36.339Z,5.70
2022-12-03T18:28:02.775Z,4.97
2022-12-03T18:30:29.303Z,5.63
2022-12-03T18:32:55.829Z,4.63
2022-12-03T18:35:22.369Z,3.65
2022-12-03T18:37:49.408Z,4.38
2022-12-03T18:40:21.389Z,3.80
2022-12-03T18:42:47.881Z,4.35
2022-12-03T18:45:15.042Z,3.78
2022-12-03T18:47:42.069Z,3.88
2022-12-03T18:50:09.612Z,4.10
2022-12-03T18:52:36.290Z,4.20
2022-12-03T18:55:02.750Z,5.70
2022-12-03T18:57:29.474Z,7.88
2022-12-03T18:59:56.262Z,8.30
2022-12-03T19:05:09.562Z,6.30
2022-12-03T19:07:36.096Z,5.53
2022-12-03T19:10:03.157Z,6.45
2022-12-03T19:12:31.189Z,5.35
2022-12-03T19:14:57.671Z,3.42
2022-12-03T19:17:24.114Z,3.88
2022-12-03T19:19:50.586Z,3.10
2022-12-03T19:22:17.016Z,2.75
2022-12-03T19:24:43.866Z,2.40
2022-12-03T19:27:10.378Z,2.95
2022-12-03T19:29:36.871Z,3.20
2022-12-03T19:32:03.834Z,2.80
2022-12-03T19:34:30.345Z,2.80
2022-12-03T19:36:56.836Z,2.90
2022-12-03T19:39:24.012Z,2.97
2022-12-03T19:41:50.608Z,2.20
2022-12-03T19:44:17.969Z,3.17
2022-12-03T19:46:44.502Z,3.05
2022-12-03T19:49:11.237Z,2.28
2022-12-03T19:51:37.842Z,1.70
2022-12-03T19:54:05.788Z,2.10
2022-12-03T19:56:32.390Z,2.47
2022-12-03T19:58:59.002Z,3.60
2022-12-03T20:01:26.809Z,4.25
2022-12-03T20:03:54.584Z,4.38
2022-12-03T20:06:25.198Z,5.20
2022-12-03T20:08:55.475Z,3.80
2022-12-03T20:11:23.336Z,3.78
2022-12-03T20:13:52.625Z,3.80
2022-12-03T20:16:19.099Z,4.07
2022-12-03T20:18:46.881Z,3.78
2022-12-03T20:21:14.560Z,2.38
2022-12-03T20:23:41.166Z,2.50
2022-12-03T20:26:12.248Z,1.65
2022-12-03T20:28:39.242Z,1.10
2022-12-03T20:31:11.006Z,1.70
2022-12-03T20:33:37.832Z,2.20
2022-12-03T20:36:04.474Z,2.30
2022-12-03T20:38:32.068Z,1.90
2022-12-03T20:41:02.364Z,1.70
2022-12-03T20:43:28.856Z,2.33
2022-12-03T20:46:01.063Z,2.33
2022-12-03T20:50:55.613Z,2.15
2022-12-03T20:53:25.677Z,3.45
2022-12-03T20:55:56.368Z,2.40
2022-12-03T20:58:22.999Z,2.38
2022-12-03T21:00:49.692Z,3.15
2022-12-03T21:03:16.281Z,2.95
2022-12-03T21:05:43.931Z,2.17
2022-12-03T21:08:10.843Z,1.60
2022-12-03T21:10:46.963Z,2.47
2022-12-03T21:13:17.402Z,1.92
2022-12-03T21:15:44.685Z,1.85
2022-12-03T21:18:14.132Z,1.65
2022-12-03T21:20:44.938Z,1.80
2022-12-03T21:23:11.579Z,2.72
2022-12-03T21:25:38.772Z,2.35
2022-12-03T21:28:06.294Z,2.75
2022-12-03T21:30:32.907Z,2.83
2022-12-03T21:32:59.425Z,2.45
2022-12-03T21:35:25.858Z,2.63
2022-12-03T21:37:52.450Z,3.20
2022-12-03T21:40:19.422Z,2.78
2022-12-03T21:42:45.953Z,3.22
2022-12-03T21:45:12.775Z,4.22
2022-12-03T21:47:39.335Z,2.22
2022-12-03T21:50:07.856Z,2.15
2022-12-03T21:52:35.069Z,2.70
2022-12-03T21:55:01.690Z,1.98
2022-12-03T21:57:28.206Z,2.40
2022-12-03T21:59:55.656Z,2.45
2022-12-03T22:02:22.559Z,3.63
2022-12-03T22:04:49.869Z,2.78
2022-12-03T22:07:16.701Z,2.42
2022-12-03T22:09:43.163Z,2.45
2022-12-03T22:12:09.678Z,2.58
2022-12-03T22:14:36.299Z,2.55
2022-12-03T22:17:03.116Z,2.28
2022-12-03T22:19:29.671Z,2.63
2022-12-03T22:21:56.153Z,3.63
2022-12-03T22:24:23.909Z,4.35
2022-12-03T22:26:52.226Z,2.80
2022-12-03T22:29:18.787Z,2.10
2022-12-03T22:31:45.347Z,2.85
2022-12-03T22:34:11.940Z,2.05
2022-12-03T22:36:38.458Z,1.83
2022-12-03T22:39:04.968Z,2.80
2022-12-03T22:41:31.450Z,1.95
2022-12-03T22:43:57.965Z,2.90
2022-12-03T22:46:24.496Z,2.33
2022-12-03T22:48:51.115Z,2.63
2022-12-03T22:51:19.179Z,3.05
2022-12-03T22:53:45.821Z,2.85
2022-12-03T22:56:12.439Z,3.25
2022-12-03T22:58:39.515Z,2.72
2022-12-03T23:01:06.346Z,2.65
2022-12-03T23:03:32.968Z,3.22
2022-12-03T23:05:59.430Z,2.42
2022-12-03T23:08:26.055Z,2.53
2022-12-03T23:10:52.773Z,3.17
2022-12-03T23:13:19.994Z,3.10
2022-12-03T23:15:47.752Z,2.20
2022-12-03T23:18:14.318Z,2.50
2022-12-03T23:20:41.646Z,2.85
2022-12-03T23:23:08.083Z,2.20
2022-12-03T23:25:34.547Z,1.77
2022-12-03T23:28:01.033Z,2.33
2022-12-03T23:30:27.501Z,2.42
2022-12-03T23:32:54.044Z,1.70
2022-12-03T23:35:20.500Z,2.03
2022-12-03T23:37:46.958Z,2.10
2022-12-03T23:40:13.814Z,1.52
2022-12-03T23:42:40.262Z,1.50
2022-12-03T23:45:07.027Z,1.70
2022-12-03T23:47:33.600Z,1.50
2022-12-03T23:50:00.170Z,1.58
2022-12-03T23:52:26.660Z,1.90
2022-12-03T23:54:53.133Z,2.47
2022-12-03T23:57:19.628Z,1.90
2022-12-03T23:59:46.181Z,1.55
